KAYS/AYS METAR and TAF weather

Enter ICAO airport designator
Station Type Date Time Source
KAYS METAR 2018/07/21 13:15 UTC NOAA

KAYS 211315Z AUTO 00000KT 7SM OVC003 25/23 A2996 RMK AO2 LTG DSNT N T02460229


Station Type Date Time Source
KAYS Decoded METAR 2018/07/21 13:15 UTC NOAA

Waycross / Ware County, Ga, GA, United States (KAYS) 31-15N 082-24W 46M
Jul 21, 2018 - 09:15 AM EDT / 2018.07.21 1315 UTC
Wind: Calm:0
Visibility: 7 mile(s):0
Sky conditions: overcast
Weather: Lightning observed
Temperature: 76.3 F (24.6 C)
Dew Point: 73.2 F (22.9 C)
Relative Humidity: 90%
Pressure (altimeter): 29.96 in. Hg (1014 hPa)
ob: KAYS 211315Z AUTO 00000KT 7SM OVC003 25/23 A2996 RMK AO2 LTG DSNT N T02460229
cycle: 13

Station Type Date Time Source
KAYS TAF UTC NOAA

Error!


Example: see airport list